Time;durP1;ratioP1;P1;durP2;ratioP2;P2;SDS_P1;SDS_P2;PMS_P1;PMS_P2;Temp;Humidity;BMP_temperature;BMP_pressure;BME280_temperature;BME280_humidity;BME280_pressure;Samples;Min_cycle;Max_cycle;Signal;HPM_P1;HPM_P2
2021/01/14 00:01:00;;;;;;;8.38;6.25;;;0.30;99.90;;;;;;5033958;28;20044;-77
2021/01/14 00:03:26;;;;;;;9.57;6.72;;;0.20;99.90;;;;;;5033075;28;20045;-77
2021/01/14 00:06:13;;;;;;;6.35;5.78;;;0.20;99.90;;;;;;5047207;28;20114;-76
2021/01/14 00:08:40;;;;;;;9.30;6.88;;;0.20;99.90;;;;;;5051386;28;20170;-76
2021/01/14 00:11:06;;;;;;;11.35;7.15;;;0.20;99.90;;;;;;5046740;28;20080;-78
2021/01/14 00:13:33;;;;;;;9.15;6.70;;;0.20;99.90;;;;;;5066535;28;20734;-78
2021/01/14 00:15:59;;;;;;;7.90;6.40;;;0.20;99.90;;;;;;5046195;28;20419;-78
2021/01/14 00:18:25;;;;;;;8.82;6.90;;;0.20;99.90;;;;;;5055093;28;20052;-78
2021/01/14 00:20:52;;;;;;;7.60;6.68;;;0.20;99.90;;;;;;5069033;28;20443;-78
2021/01/14 00:23:18;;;;;;;9.80;6.78;;;0.20;99.90;;;;;;5068521;28;20051;-78
2021/01/14 00:25:45;;;;;;;7.55;7.05;;;0.20;99.90;;;;;;5069489;28;20068;-77
2021/01/14 00:28:11;;;;;;;17.35;7.68;;;0.20;99.90;;;;;;5036760;28;20476;-78
2021/01/14 00:30:37;;;;;;;8.10;5.90;;;0.20;99.90;;;;;;5067326;28;20041;-78
2021/01/14 00:33:04;;;;;;;9.15;6.32;;;0.30;99.90;;;;;;5068709;28;20052;-77
2021/01/14 00:35:31;;;;;;;12.93;7.07;;;0.20;99.90;;;;;;5068830;28;20276;-77
2021/01/14 00:37:59;;;;;;;7.60;6.53;;;0.20;99.90;;;;;;5071975;28;20437;-77
2021/01/14 00:40:28;;;;;;;6.97;6.32;;;0.20;99.90;;;;;;5049557;28;20487;-78
2021/01/14 00:42:56;;;;;;;7.65;5.93;;;0.20;99.90;;;;;;4997477;28;20050;-77
2021/01/14 00:45:24;;;;;;;14.10;7.93;;;0.20;99.90;;;;;;5009732;28;20143;-78
2021/01/14 00:47:51;;;;;;;12.13;6.20;;;0.10;99.90;;;;;;5017491;28;20041;-78
2021/01/14 00:50:17;;;;;;;11.02;6.82;;;0.10;99.90;;;;;;5032493;28;20099;-77
2021/01/14 00:52:44;;;;;;;6.78;6.20;;;0.00;99.90;;;;;;5015349;28;20041;-78
2021/01/14 00:55:13;;;;;;;9.32;5.93;;;0.00;99.90;;;;;;5051302;28;20059;-78
2021/01/14 00:57:39;;;;;;;7.07;5.75;;;0.00;99.90;;;;;;5049991;28;20080;-77
2021/01/14 01:00:08;;;;;;;8.77;6.25;;;0.00;99.90;;;;;;5050982;28;20377;-78
2021/01/14 01:02:35;;;;;;;7.10;6.50;;;0.00;99.90;;;;;;5019070;28;20037;-78
2021/01/14 01:05:02;;;;;;;12.45;6.38;;;-0.10;99.90;;;;;;5018520;28;20057;-76
2021/01/14 01:07:28;;;;;;;19.90;6.13;;;-0.10;99.90;;;;;;5035355;28;20113;-77
2021/01/14 01:09:55;;;;;;;7.40;5.53;;;-0.20;99.90;;;;;;5051503;28;20057;-79
2021/01/14 01:12:21;;;;;;;11.05;5.65;;;-0.20;99.90;;;;;;5036243;28;20045;-79
2021/01/14 01:14:47;;;;;;;6.90;6.03;;;-0.20;99.90;;;;;;5036307;28;20087;-78
2021/01/14 01:17:14;;;;;;;11.80;5.85;;;-0.20;99.90;;;;;;5035211;28;20632;-78
2021/01/14 01:19:41;;;;;;;9.45;6.30;;;-0.20;99.90;;;;;;5039034;28;20095;-80
2021/01/14 01:22:08;;;;;;;7.38;6.28;;;-0.20;99.90;;;;;;5054361;28;20051;-78
2021/01/14 01:24:34;;;;;;;8.15;6.18;;;-0.10;99.90;;;;;;5037323;28;20041;-79
2021/01/14 01:27:01;;;;;;;9.85;5.53;;;-0.10;99.90;;;;;;5036602;28;20071;-79
2021/01/14 01:29:27;;;;;;;9.35;5.80;;;-0.10;99.90;;;;;;5037651;28;20041;-79
2021/01/14 01:31:53;;;;;;;7.32;5.78;;;-0.10;99.90;;;;;;5051064;28;20387;-80
2021/01/14 01:34:20;;;;;;;5.70;5.15;;;-0.10;99.90;;;;;;5037061;28;20521;-79
2021/01/14 01:36:51;;;;;;;9.23;5.80;;;-0.10;99.90;;;;;;5052889;28;20555;-80
2021/01/14 01:39:17;;;;;;;10.50;6.40;;;-0.10;99.90;;;;;;5058868;28;20098;-79
2021/01/14 01:41:45;;;;;;;9.50;6.15;;;-0.10;99.90;;;;;;5075456;28;20074;-79
2021/01/14 01:44:13;;;;;;;8.40;5.43;;;-0.10;99.90;;;;;;5059389;28;20048;-79
2021/01/14 01:46:40;;;;;;;6.63;5.60;;;-0.10;99.90;;;;;;5037964;28;20053;-79
2021/01/14 01:49:08;;;;;;;6.88;6.25;;;-0.10;99.90;;;;;;5056427;28;20040;-78
2021/01/14 01:51:39;;;;;;;9.15;5.13;;;-0.10;99.90;;;;;;5049448;28;20041;-79
2021/01/14 01:54:07;;;;;;;7.10;6.30;;;-0.20;99.90;;;;;;5036260;28;20048;-79
2021/01/14 01:56:35;;;;;;;5.65;5.15;;;-0.20;99.90;;;;;;5054487;28;20053;-78
2021/01/14 01:59:01;;;;;;;8.02;4.95;;;-0.20;99.90;;;;;;5039036;28;20045;-79
2021/01/14 02:01:28;;;;;;;12.55;6.20;;;-0.20;99.90;;;;;;5036015;28;20072;-80
2021/01/14 02:03:54;;;;;;;7.80;5.47;;;-0.20;99.90;;;;;;5020946;28;20539;-78
2021/01/14 02:06:21;;;;;;;9.23;5.43;;;-0.20;99.90;;;;;;5073722;28;20532;-79
2021/01/14 02:08:51;;;;;;;6.82;5.30;;;-0.20;99.90;;;;;;5058181;28;20051;-79
2021/01/14 02:11:26;;;;;;;11.07;5.93;;;-0.20;99.90;;;;;;5053503;28;20055;-78
2021/01/14 02:14:14;;;;;;;9.27;7.00;;;-0.20;99.90;;;;;;5039683;28;20041;-78
2021/01/14 02:16:43;;;;;;;7.78;6.50;;;-0.30;99.90;;;;;;5038157;28;20063;-79
2021/01/14 02:19:38;;;;;;;10.65;7.10;;;-0.20;99.90;;;;;;5058003;28;20642;-79
2021/01/14 02:22:12;;;;;;;6.72;6.07;;;-0.20;99.90;;;;;;5053184;28;20044;-79
2021/01/14 02:24:49;;;;;;;10.18;6.55;;;-0.20;99.90;;;;;;5057793;28;20577;-80
2021/01/14 02:27:16;;;;;;;7.50;6.78;;;-0.20;99.90;;;;;;5058494;28;20060;-81
2021/01/14 02:29:44;;;;;;;12.27;7.75;;;-0.30;99.90;;;;;;5058514;28;20123;-80
2021/01/14 02:32:17;;;;;;;8.23;7.55;;;-0.30;99.90;;;;;;5037400;28;20083;-79
2021/01/14 02:34:44;;;;;;;9.27;8.38;;;-0.30;99.90;;;;;;5053232;28;20102;-79
2021/01/14 02:37:11;;;;;;;12.82;7.82;;;-0.30;99.90;;;;;;5028731;28;20143;-80
2021/01/14 02:39:38;;;;;;;8.60;7.93;;;-0.30;99.90;;;;;;5036646;28;20045;-78
2021/01/14 02:42:04;;;;;;;8.85;8.25;;;-0.30;99.90;;;;;;5046932;28;20613;-78
2021/01/14 02:44:31;;;;;;;9.25;8.40;;;-0.30;99.90;;;;;;5055230;28;20063;-78
2021/01/14 02:46:58;;;;;;;10.45;8.60;;;-0.30;99.90;;;;;;5051087;28;20131;-79
2021/01/14 02:49:27;;;;;;;8.98;8.20;;;-0.30;99.90;;;;;;5075602;28;20071;-80
2021/01/14 02:52:00;;;;;;;11.63;8.77;;;-0.30;99.90;;;;;;5075211;28;20047;-78
2021/01/14 02:54:27;;;;;;;12.48;8.40;;;-0.30;99.90;;;;;;5055082;28;20052;-79
2021/01/14 02:56:54;;;;;;;10.77;8.10;;;-0.40;99.90;;;;;;5033748;28;20041;-80
2021/01/14 02:59:20;;;;;;;9.23;8.40;;;-0.40;99.90;;;;;;5032072;28;20428;-80
2021/01/14 03:01:48;;;;;;;8.98;8.23;;;-0.40;99.90;;;;;;5057854;28;20052;-78
2021/01/14 03:04:14;;;;;;;9.23;7.55;;;-0.40;99.90;;;;;;5054388;28;20113;-79
2021/01/14 03:06:41;;;;;;;8.20;7.45;;;-0.40;99.90;;;;;;5037036;28;20146;-79
2021/01/14 03:09:07;;;;;;;9.32;8.50;;;-0.40;99.90;;;;;;5055795;28;20045;-78
2021/01/14 03:11:35;;;;;;;10.75;8.07;;;-0.40;99.90;;;;;;5042347;28;20067;-78
2021/01/14 03:14:01;;;;;;;11.18;8.88;;;-0.50;99.90;;;;;;5032222;28;20044;-79
2021/01/14 03:16:28;;;;;;;10.65;9.45;;;-0.40;99.90;;;;;;5035633;28;20037;-79
2021/01/14 03:18:54;;;;;;;9.48;8.80;;;-0.40;99.90;;;;;;5053161;28;20041;-79
2021/01/14 03:21:22;;;;;;;10.32;8.90;;;-0.40;99.90;;;;;;5045468;28;20511;-79
2021/01/14 03:23:50;;;;;;;12.48;9.35;;;-0.40;99.90;;;;;;5037808;28;20077;-80
2021/01/14 03:26:17;;;;;;;9.88;8.75;;;-0.40;99.90;;;;;;5037378;28;20075;-79
2021/01/14 03:28:44;;;;;;;9.93;9.13;;;-0.30;99.90;;;;;;5053667;28;20044;-79
2021/01/14 03:31:12;;;;;;;13.45;8.50;;;-0.30;99.90;;;;;;5047663;28;20125;-80
2021/01/14 03:33:40;;;;;;;12.98;9.80;;;-0.30;99.90;;;;;;5019458;28;20060;-80
2021/01/14 03:36:08;;;;;;;16.00;9.82;;;-0.40;99.90;;;;;;5052072;28;20132;-80
2021/01/14 03:38:36;;;;;;;8.52;7.93;;;-0.40;99.90;;;;;;5017911;28;20500;-78
2021/01/14 03:41:14;;;;;;;9.90;9.00;;;-0.40;99.90;;;;;;5020551;28;20261;-80
2021/01/14 03:43:41;;;;;;;10.70;8.73;;;-0.50;99.90;;;;;;5054373;28;20045;-81
2021/01/14 03:46:15;;;;;;;10.70;8.43;;;-0.50;99.90;;;;;;5029304;28;20487;-80
2021/01/14 03:48:46;;;;;;;9.10;8.18;;;-0.40;99.90;;;;;;5055162;28;20053;-81
2021/01/14 03:51:16;;;;;;;8.55;7.70;;;-0.40;99.90;;;;;;5033646;28;20120;-80
2021/01/14 03:53:43;;;;;;;8.73;8.20;;;-0.40;99.90;;;;;;5041853;28;20094;-80
2021/01/14 03:56:09;;;;;;;9.43;8.15;;;-0.40;99.90;;;;;;5023994;28;20061;-79
2021/01/14 03:58:36;;;;;;;9.48;8.10;;;-0.40;99.90;;;;;;5043077;28;20052;-80
2021/01/14 04:01:02;;;;;;;11.25;8.98;;;-0.40;99.90;;;;;;5047036;28;20127;-80
2021/01/14 04:03:29;;;;;;;9.05;8.20;;;-0.30;99.90;;;;;;5058513;28;20051;-82
2021/01/14 04:05:55;;;;;;;8.73;7.50;;;-0.40;99.90;;;;;;5040285;28;20128;-82
2021/01/14 04:08:22;;;;;;;9.38;8.63;;;-0.30;99.90;;;;;;5059839;28;20055;-81
2021/01/14 04:10:48;;;;;;;13.93;8.07;;;-0.40;99.90;;;;;;5059881;28;20131;-81
2021/01/14 04:13:15;;;;;;;9.25;8.27;;;-0.40;99.90;;;;;;5074137;28;20215;-79
2021/01/14 04:15:42;;;;;;;9.48;8.38;;;-0.30;99.90;;;;;;5072826;28;20252;-79
2021/01/14 04:18:08;;;;;;;9.18;8.43;;;-0.30;99.90;;;;;;5042750;28;20060;-79
2021/01/14 04:20:35;;;;;;;9.50;8.60;;;-0.30;99.90;;;;;;5042369;28;20044;-80
2021/01/14 04:23:01;;;;;;;10.27;8.90;;;-0.30;99.90;;;;;;5039209;28;20045;-80
2021/01/14 04:25:31;;;;;;;9.90;9.05;;;-0.30;99.90;;;;;;5041544;28;20094;-81
2021/01/14 04:27:59;;;;;;;9.07;8.32;;;-0.30;99.90;;;;;;5059227;28;20048;-80
2021/01/14 04:30:27;;;;;;;12.50;8.75;;;-0.30;99.90;;;;;;5054202;28;20052;-80
2021/01/14 04:33:12;;;;;;;11.40;9.15;;;-0.20;99.90;;;;;;5018863;28;20090;-80
2021/01/14 04:35:51;;;;;;;10.00;8.68;;;-0.20;99.90;;;;;;5041325;28;20580;-80
2021/01/14 04:38:20;;;;;;;8.32;7.68;;;-0.20;99.90;;;;;;5039530;28;20048;-79
2021/01/14 04:40:58;;;;;;;11.00;8.25;;;-0.30;99.90;;;;;;5040839;28;20056;-80
2021/01/14 04:43:26;;;;;;;8.55;7.75;;;-0.30;99.90;;;;;;5048411;28;20507;-80
2021/01/14 04:45:56;;;;;;;8.88;7.95;;;-0.30;99.90;;;;;;5052535;28;20045;-79
2021/01/14 04:48:23;;;;;;;9.07;7.57;;;-0.30;99.90;;;;;;5056758;28;20529;-79
2021/01/14 04:50:53;;;;;;;10.90;7.72;;;-0.30;99.90;;;;;;5053286;28;20059;-80
2021/01/14 04:53:20;;;;;;;9.27;8.57;;;-0.30;99.90;;;;;;5038132;28;20070;-81
2021/01/14 04:55:48;;;;;;;9.13;8.30;;;-0.30;99.90;;;;;;5056631;28;20051;-80
2021/01/14 04:58:17;;;;;;;10.60;8.77;;;-0.30;99.90;;;;;;5073078;28;20059;-81
2021/01/14 05:00:51;;;;;;;9.73;7.72;;;-0.30;99.90;;;;;;5041310;28;20090;-81
2021/01/14 05:03:22;;;;;;;9.73;8.47;;;-0.30;99.90;;;;;;5040353;28;20051;-79
2021/01/14 05:05:50;;;;;;;9.13;8.43;;;-0.30;99.90;;;;;;5055868;28;20049;-79
2021/01/14 05:08:17;;;;;;;9.10;8.23;;;-0.30;99.90;;;;;;5058375;28;20044;-80
2021/01/14 05:10:44;;;;;;;11.85;8.48;;;-0.30;99.90;;;;;;5038910;28;20052;-79
2021/01/14 05:13:11;;;;;;;11.55;8.40;;;-0.30;99.90;;;;;;5054006;28;20130;-79
2021/01/14 05:15:39;;;;;;;10.75;9.80;;;-0.30;99.90;;;;;;5058764;28;20041;-79
2021/01/14 05:18:06;;;;;;;12.30;9.63;;;-0.40;99.90;;;;;;5036928;28;20059;-80
2021/01/14 05:20:33;;;;;;;12.65;10.68;;;-0.30;99.90;;;;;;5036834;28;20439;-80
2021/01/14 05:23:01;;;;;;;12.77;10.68;;;-0.30;99.90;;;;;;5053709;28;20463;-80
2021/01/14 05:25:29;;;;;;;11.38;9.30;;;-0.30;99.90;;;;;;5051388;28;20084;-80
2021/01/14 05:28:09;;;;;;;10.55;9.43;;;-0.40;99.90;;;;;;5030245;28;20126;-80
2021/01/14 05:30:37;;;;;;;17.83;9.95;;;-0.30;99.90;;;;;;5039559;28;20515;-80
2021/01/14 05:33:10;;;;;;;10.77;9.55;;;-0.40;99.90;;;;;;5037129;28;20053;-80
2021/01/14 05:35:36;;;;;;;10.32;9.27;;;-0.40;99.90;;;;;;5030055;28;20344;-80
2021/01/14 05:38:03;;;;;;;9.98;9.02;;;-0.40;99.90;;;;;;5017910;28;20288;-81
2021/01/14 05:40:31;;;;;;;10.63;8.60;;;-0.30;99.90;;;;;;5047685;28;20153;-80
2021/01/14 05:43:01;;;;;;;11.85;10.73;;;-0.20;99.90;;;;;;5072090;28;20086;-81
2021/01/14 05:45:28;;;;;;;13.77;10.10;;;-0.20;99.90;;;;;;5072500;28;20053;-80
2021/01/14 05:48:12;;;;;;;10.55;9.02;;;-0.30;99.90;;;;;;5055168;28;20062;-80
2021/01/14 05:50:44;;;;;;;11.10;9.10;;;-0.30;99.90;;;;;;5070866;28;20071;-81
2021/01/14 05:53:18;;;;;;;14.45;9.95;;;-0.30;99.90;;;;;;5070185;28;20049;-80
2021/01/14 05:55:51;;;;;;;10.43;9.30;;;-0.20;99.90;;;;;;5039885;28;20123;-80
2021/01/14 05:58:19;;;;;;;17.60;10.23;;;-0.20;99.90;;;;;;5056289;28;20309;-81
2021/01/14 06:00:47;;;;;;;16.58;10.95;;;-0.20;99.90;;;;;;5036344;28;20060;-81
2021/01/14 06:03:27;;;;;;;9.18;8.55;;;-0.30;99.90;;;;;;5036958;28;20051;-82
2021/01/14 06:05:55;;;;;;;9.90;9.00;;;-0.30;99.90;;;;;;5051782;28;20056;-78
2021/01/14 06:08:29;;;;;;;11.75;9.55;;;-0.40;99.90;;;;;;5055905;28;20124;-80
2021/01/14 06:10:55;;;;;;;11.60;8.93;;;-0.40;99.90;;;;;;5070277;28;20400;-79
2021/01/14 06:13:38;;;;;;;10.05;9.05;;;-0.40;99.90;;;;;;5053486;28;20106;-81
2021/01/14 06:16:07;;;;;;;10.57;9.82;;;-0.40;99.90;;;;;;5052187;28;20065;-80
2021/01/14 06:18:34;;;;;;;10.40;9.35;;;-0.40;99.90;;;;;;5037077;28;20098;-80
2021/01/14 06:21:00;;;;;;;10.50;9.10;;;-0.40;99.90;;;;;;5068994;28;20048;-81
2021/01/14 06:23:28;;;;;;;10.23;8.85;;;-0.50;99.90;;;;;;5034345;28;20052;-81
2021/01/14 06:25:57;;;;;;;17.92;10.05;;;-0.40;99.90;;;;;;5068020;28;20645;-81
2021/01/14 06:28:33;;;;;;;12.95;9.27;;;-0.40;99.90;;;;;;5069048;28;20052;-80
2021/01/14 06:31:08;;;;;;;14.60;10.38;;;-0.30;99.90;;;;;;5030595;28;20090;-80
2021/01/14 06:33:36;;;;;;;11.25;10.15;;;-0.30;99.90;;;;;;5052113;28;20045;-78
2021/01/14 06:36:11;;;;;;;14.65;9.55;;;-0.30;99.90;;;;;;5048047;28;20048;-80
2021/01/14 06:38:48;;;;;;;11.68;10.05;;;-0.20;99.90;;;;;;5054205;28;20127;-79
2021/01/14 06:41:21;;;;;;;13.82;10.63;;;-0.20;99.90;;;;;;5021808;28;20045;-80
2021/01/14 06:43:51;;;;;;;12.25;9.52;;;-0.30;99.90;;;;;;5041530;28;20123;-80
2021/01/14 06:46:22;;;;;;;11.60;10.52;;;-0.30;99.90;;;;;;5058171;28;20067;-81
2021/01/14 06:49:00;;;;;;;11.43;10.25;;;-0.30;99.90;;;;;;5032718;28;20075;-80
2021/01/14 06:51:43;;;;;;;11.35;9.38;;;-0.30;99.90;;;;;;5065813;28;20285;-80
2021/01/14 06:54:10;;;;;;;10.27;9.10;;;-0.30;99.90;;;;;;5052688;28;20056;-81
2021/01/14 06:56:48;;;;;;;14.73;10.00;;;-0.30;99.90;;;;;;5069522;28;20048;-80
2021/01/14 06:59:16;;;;;;;12.95;11.63;;;-0.30;99.90;;;;;;5069536;28;20049;-80
2021/01/14 07:02:12;;;;;;;11.40;10.15;;;-0.20;99.90;;;;;;5035189;28;20048;-78
2021/01/14 07:04:45;;;;;;;13.10;10.25;;;-0.30;99.90;;;;;;5017082;28;20079;-80
2021/01/14 07:07:39;;;;;;;13.15;10.70;;;-0.30;99.90;;;;;;5064249;28;20071;-81
2021/01/14 07:10:07;;;;;;;12.65;11.38;;;-0.30;99.90;;;;;;5052274;28;20098;-79
2021/01/14 07:12:39;;;;;;;16.65;11.85;;;-0.30;99.90;;;;;;5035478;28;20261;-80
2021/01/14 07:15:07;;;;;;;14.98;11.80;;;-0.30;99.90;;;;;;5052508;28;20049;-80
2021/01/14 07:17:37;;;;;;;15.15;11.50;;;-0.30;99.90;;;;;;5070864;28;20131;-82
2021/01/14 07:20:14;;;;;;;12.23;10.32;;;-0.30;99.90;;;;;;5037699;28;20040;-78
2021/01/14 07:22:53;;;;;;;12.30;11.00;;;-0.20;99.90;;;;;;5068528;28;20056;-80
2021/01/14 07:25:21;;;;;;;14.38;11.38;;;-0.20;99.90;;;;;;5071285;28;20098;-79
2021/01/14 07:27:49;;;;;;;15.48;10.57;;;-0.20;99.90;;;;;;5047309;28;20495;-80
2021/01/14 07:30:18;;;;;;;14.60;10.65;;;-0.20;99.90;;;;;;5019505;28;20114;-80
2021/01/14 07:32:57;;;;;;;15.60;11.70;;;-0.20;99.90;;;;;;5040883;28;20037;-79
2021/01/14 07:35:37;;;;;;;14.95;11.35;;;-0.20;99.90;;;;;;5024526;28;20047;-80
2021/01/14 07:38:04;;;;;;;15.60;12.35;;;-0.30;99.90;;;;;;5086795;28;20036;-80
2021/01/14 07:40:33;;;;;;;13.25;11.85;;;-0.20;99.90;;;;;;5055865;28;20047;-81
2021/01/14 07:43:02;;;;;;;13.90;12.60;;;-0.30;99.90;;;;;;5039005;28;20109;-81
2021/01/14 07:45:32;;;;;;;13.52;12.20;;;-0.30;99.90;;;;;;5052778;28;20498;-80
2021/01/14 07:48:18;;;;;;;13.77;12.38;;;-0.20;99.90;;;;;;5036770;28;20568;-78
2021/01/14 07:50:58;;;;;;;15.38;10.57;;;-0.20;99.90;;;;;;5038835;28;20459;-81
2021/01/14 07:53:26;;;;;;;15.27;12.90;;;-0.30;99.90;;;;;;5028246;28;20056;-80
2021/01/14 07:55:53;;;;;;;19.67;12.30;;;-0.30;99.90;;;;;;5032597;28;20072;-80
2021/01/14 07:58:22;;;;;;;13.18;11.93;;;-0.40;99.90;;;;;;5037448;28;20037;-80
2021/01/14 08:01:03;;;;;;;17.40;12.48;;;-0.30;99.90;;;;;;5055397;28;20092;-81
2021/01/14 08:03:34;;;;;;;19.83;12.95;;;-0.30;99.90;;;;;;5065274;28;20045;-81
2021/01/14 08:06:25;;;;;;;23.30;13.23;;;-0.30;99.90;;;;;;5028711;28;20132;-81
2021/01/14 08:09:18;;;;;;;20.13;13.73;;;-0.20;99.90;;;;;;5050169;28;20514;-79
2021/01/14 08:11:45;;;;;;;14.50;12.63;;;-0.20;99.90;;;;;;5023413;28;20067;-77
2021/01/14 08:14:34;;;;;;;19.05;13.10;;;-0.10;99.90;;;;;;5029690;28;20060;-77
2021/01/14 08:17:20;;;;;;;17.35;14.13;;;-0.10;99.90;;;;;;5025425;28;20482;-77
2021/01/14 08:19:47;;;;;;;18.17;16.33;;;-0.10;99.90;;;;;;5064454;28;20056;-79
2021/01/14 08:22:14;;;;;;;18.55;14.88;;;-0.10;99.90;;;;;;5046758;28;20055;-78
2021/01/14 08:24:42;;;;;;;17.38;14.85;;;-0.10;99.90;;;;;;5030973;28;20060;-78
2021/01/14 08:27:10;;;;;;;20.05;14.90;;;0.00;99.90;;;;;;5051094;28;20689;-78
2021/01/14 08:30:07;;;;;;;18.23;14.73;;;-0.10;99.90;;;;;;5067481;28;20225;-77
2021/01/14 08:32:48;;;;;;;19.58;14.70;;;0.00;99.90;;;;;;5062713;28;20540;-77
2021/01/14 08:35:28;;;;;;;21.17;14.82;;;0.00;99.90;;;;;;5051787;28;20215;-78
2021/01/14 08:37:57;;;;;;;16.52;13.20;;;0.00;99.90;;;;;;5033207;28;20053;-77
2021/01/14 08:40:24;;;;;;;21.65;16.02;;;-0.10;99.90;;;;;;5054567;28;20048;-76
2021/01/14 08:43:09;;;;;;;19.58;16.00;;;0.00;99.90;;;;;;5069011;28;20044;-78
2021/01/14 08:45:46;;;;;;;16.57;14.33;;;0.00;99.90;;;;;;5064511;28;20044;-77
2021/01/14 08:48:20;;;;;;;20.05;16.20;;;0.00;99.90;;;;;;5050820;28;20087;-78
2021/01/14 08:50:56;;;;;;;23.75;15.25;;;-0.10;99.90;;;;;;5051473;28;20573;-78
2021/01/14 08:53:25;;;;;;;17.77;15.50;;;0.00;99.90;;;;;;5049543;28;20074;-76
2021/01/14 08:56:14;;;;;;;20.67;13.70;;;-0.10;99.90;;;;;;5049201;28;20178;-76
2021/01/14 08:58:48;;;;;;;17.88;15.95;;;0.00;99.90;;;;;;5067895;28;20056;-76
2021/01/14 09:01:23;;;;;;;20.77;14.40;;;0.10;99.90;;;;;;5030771;28;20056;-76
2021/01/14 09:03:52;;;;;;;21.02;15.32;;;0.10;99.90;;;;;;5049032;28;20056;-76
2021/01/14 09:06:33;;;;;;;18.55;16.77;;;0.10;99.90;;;;;;5060663;28;20048;-75
2021/01/14 09:09:02;;;;;;;17.83;16.02;;;0.10;99.90;;;;;;5065874;28;20047;-76
2021/01/14 09:11:30;;;;;;;16.92;15.23;;;0.10;99.90;;;;;;5047903;28;20068;-76
2021/01/14 09:14:07;;;;;;;20.27;16.80;;;0.20;99.90;;;;;;5047470;28;20083;-76
2021/01/14 09:16:34;;;;;;;25.42;19.23;;;0.20;99.90;;;;;;5032160;28;20482;-76
2021/01/14 09:19:10;;;;;;;24.20;18.67;;;0.20;99.90;;;;;;5065518;28;20259;-75
2021/01/14 09:21:37;;;;;;;21.17;16.38;;;0.30;99.90;;;;;;5033826;28;20424;-76
2021/01/14 09:24:08;;;;;;;20.73;16.92;;;0.30;99.90;;;;;;5028290;28;20041;-76
2021/01/14 09:26:38;;;;;;;22.25;16.60;;;0.40;99.90;;;;;;5040872;28;20372;-75
2021/01/14 09:29:08;;;;;;;24.73;16.77;;;0.40;99.90;;;;;;5065742;28;20051;-75
2021/01/14 09:31:35;;;;;;;19.55;16.60;;;0.40;99.90;;;;;;5014936;28;20057;-75
2021/01/14 09:34:03;;;;;;;20.00;17.38;;;0.40;99.90;;;;;;5076724;28;20049;-77
2021/01/14 09:36:30;;;;;;;21.70;17.42;;;0.40;99.90;;;;;;5061347;28;20045;-75
2021/01/14 09:38:58;;;;;;;22.52;19.60;;;0.50;99.90;;;;;;5061935;28;20068;-75
2021/01/14 09:41:30;;;;;;;25.65;20.80;;;0.60;99.90;;;;;;5028960;28;20053;-75
2021/01/14 09:44:02;;;;;;;31.08;21.73;;;0.60;99.90;;;;;;5011726;28;20041;-76
2021/01/14 09:46:50;;;;;;;31.35;25.63;;;0.60;99.90;;;;;;5039461;28;20068;-76
2021/01/14 09:49:21;;;;;;;28.50;23.50;;;0.70;99.90;;;;;;5048106;28;20136;-76
2021/01/14 09:51:51;;;;;;;25.20;22.30;;;0.70;99.90;;;;;;5031473;28;20088;-75
2021/01/14 09:54:18;;;;;;;22.13;19.70;;;0.70;99.90;;;;;;5028044;28;20053;-75
2021/01/14 09:56:50;;;;;;;22.80;20.42;;;0.80;99.90;;;;;;5059686;28;20045;-76
2021/01/14 09:59:28;;;;;;;22.85;20.42;;;0.90;99.90;;;;;;5047240;28;20060;-75
2021/01/14 10:02:00;;;;;;;24.58;21.20;;;0.80;99.90;;;;;;5060148;28;20136;-76
2021/01/14 10:04:28;;;;;;;22.20;20.25;;;0.80;99.90;;;;;;5046065;28;20132;-77
2021/01/14 10:07:01;;;;;;;22.50;20.52;;;0.90;99.90;;;;;;5044114;28;20065;-74
2021/01/14 10:09:27;;;;;;;23.08;20.90;;;0.90;99.90;;;;;;5048255;28;20056;-75
2021/01/14 10:11:55;;;;;;;23.52;20.42;;;0.90;99.90;;;;;;5031205;28;20555;-75
2021/01/14 10:14:22;;;;;;;22.98;20.80;;;0.90;99.90;;;;;;5064397;28;20604;-75
2021/01/14 10:16:49;;;;;;;23.15;21.10;;;0.90;99.90;;;;;;5046963;28;20128;-76
2021/01/14 10:19:22;;;;;;;22.83;20.95;;;0.90;99.90;;;;;;5031574;28;20048;-76
2021/01/14 10:21:49;;;;;;;23.55;20.85;;;1.00;99.90;;;;;;5062724;28;20122;-77
2021/01/14 10:24:27;;;;;;;27.90;23.20;;;1.20;99.90;;;;;;5047743;28;20170;-75
2021/01/14 10:27:06;;;;;;;23.67;21.70;;;1.10;99.90;;;;;;5064141;28;20190;-75
2021/01/14 10:29:41;;;;;;;22.92;20.90;;;1.10;99.90;;;;;;5064912;28;20674;-74
2021/01/14 10:32:09;;;;;;;24.02;21.63;;;1.00;99.90;;;;;;5047705;28;20047;-77
2021/01/14 10:34:39;;;;;;;25.48;22.85;;;1.00;99.90;;;;;;5020991;28;20117;-73
2021/01/14 10:37:05;;;;;;;29.10;21.95;;;1.10;99.90;;;;;;5030693;28;20049;-75
2021/01/14 10:39:40;;;;;;;27.27;24.38;;;1.10;99.90;;;;;;5042870;28;20116;-77
2021/01/14 10:42:35;;;;;;;31.53;24.77;;;1.10;99.90;;;;;;5029872;28;20110;-80
2021/01/14 10:45:13;;;;;;;27.85;25.30;;;1.10;99.90;;;;;;5047153;28;20309;-78
2021/01/14 10:47:42;;;;;;;28.30;25.35;;;1.10;99.90;;;;;;5062203;28;20249;-79
2021/01/14 10:50:21;;;;;;;25.88;22.83;;;1.20;99.90;;;;;;5063974;28;20049;-77
2021/01/14 10:52:56;;;;;;;25.10;23.08;;;1.10;99.90;;;;;;5032604;28;20044;-78
2021/01/14 10:55:22;;;;;;;29.23;26.17;;;1.30;99.90;;;;;;5050251;28;20041;-78
2021/01/14 10:58:05;;;;;;;25.38;22.88;;;1.40;99.90;;;;;;5036268;28;20110;-77
2021/01/14 11:00:37;;;;;;;24.42;22.45;;;1.60;99.90;;;;;;5066724;28;20045;-78
2021/01/14 11:03:12;;;;;;;24.92;22.58;;;1.50;99.90;;;;;;5051046;28;20056;-81
2021/01/14 11:05:38;;;;;;;23.45;21.50;;;1.60;99.90;;;;;;5050721;28;20108;-79
2021/01/14 11:08:27;;;;;;;24.15;21.77;;;1.60;99.90;;;;;;5068079;28;20101;-78
2021/01/14 11:11:01;;;;;;;24.83;22.58;;;1.50;99.90;;;;;;5050099;28;20052;-80
2021/01/14 11:13:46;;;;;;;24.60;22.20;;;1.60;99.90;;;;;;5052840;28;20071;-79
2021/01/14 11:16:15;;;;;;;24.42;22.40;;;1.70;99.90;;;;;;5046554;28;20144;-79
2021/01/14 11:18:43;;;;;;;23.75;21.65;;;1.70;99.90;;;;;;5028884;28;20048;-78
2021/01/14 11:21:11;;;;;;;24.77;22.55;;;1.70;99.90;;;;;;5031872;28;20087;-78
2021/01/14 11:23:38;;;;;;;26.08;23.48;;;1.80;99.90;;;;;;5050359;28;20140;-79
2021/01/14 11:26:06;;;;;;;25.27;23.00;;;1.80;99.90;;;;;;5040567;28;20422;-79
2021/01/14 11:28:41;;;;;;;23.25;21.00;;;1.80;99.90;;;;;;5068627;28;20057;-78
2021/01/14 11:31:12;;;;;;;25.77;23.17;;;1.80;99.90;;;;;;5047899;28;20041;-78
2021/01/14 11:33:40;;;;;;;25.92;23.60;;;1.80;99.90;;;;;;5051012;28;20283;-78
2021/01/14 11:36:07;;;;;;;25.00;22.38;;;1.70;99.90;;;;;;5048291;28;20175;-78
2021/01/14 11:38:34;;;;;;;25.98;23.13;;;1.80;99.90;;;;;;5067682;28;20053;-79
2021/01/14 11:41:01;;;;;;;26.75;23.92;;;1.80;99.90;;;;;;5051120;28;20121;-80
2021/01/14 11:43:27;;;;;;;25.30;22.48;;;1.80;99.90;;;;;;5052351;28;20706;-79
2021/01/14 11:45:58;;;;;;;24.75;22.30;;;1.80;99.90;;;;;;5050414;28;20342;-77
2021/01/14 11:48:25;;;;;;;23.15;20.75;;;1.90;99.90;;;;;;5053119;28;20048;-78
2021/01/14 11:50:52;;;;;;;25.13;22.42;;;1.80;99.90;;;;;;5047267;28;20068;-78
2021/01/14 11:53:19;;;;;;;26.25;21.83;;;1.70;99.90;;;;;;5066734;28;20056;-78
2021/01/14 11:55:45;;;;;;;24.90;22.20;;;1.80;99.90;;;;;;5051515;28;20047;-78
2021/01/14 11:58:12;;;;;;;30.00;23.10;;;1.80;99.90;;;;;;5070990;28;20071;-78
2021/01/14 12:00:39;;;;;;;27.00;24.42;;;2.00;99.90;;;;;;5036362;28;20061;-79
2021/01/14 12:03:07;;;;;;;29.15;25.92;;;1.90;99.90;;;;;;5067588;28;20052;-78
2021/01/14 12:05:34;;;;;;;28.40;25.80;;;1.80;99.90;;;;;;5053277;28;20111;-79
2021/01/14 12:08:02;;;;;;;28.58;25.05;;;1.80;99.90;;;;;;5053960;28;20453;-79
2021/01/14 12:10:29;;;;;;;26.95;24.60;;;2.00;99.90;;;;;;5053926;28;20106;-79
2021/01/14 12:12:56;;;;;;;30.17;27.05;;;2.00;99.90;;;;;;5068244;28;20152;-79
2021/01/14 12:15:22;;;;;;;27.90;25.38;;;2.00;99.90;;;;;;5058478;28;20124;-79
2021/01/14 12:17:49;;;;;;;28.00;25.17;;;2.00;99.90;;;;;;5061256;28;20044;-80
2021/01/14 12:20:16;;;;;;;30.30;27.50;;;2.00;99.90;;;;;;5062932;28;20113;-79
2021/01/14 12:22:43;;;;;;;30.58;27.98;;;2.00;99.90;;;;;;5076360;28;20053;-79
2021/01/14 12:25:11;;;;;;;29.90;26.27;;;2.10;99.90;;;;;;5036670;28;20101;-78
2021/01/14 12:27:41;;;;;;;29.08;26.13;;;2.00;99.90;;;;;;5037068;28;20494;-81
2021/01/14 12:30:09;;;;;;;27.50;25.10;;;1.90;99.90;;;;;;5038737;28;20509;-80
2021/01/14 12:32:37;;;;;;;28.52;25.73;;;1.90;99.90;;;;;;5025155;28;20128;-80
2021/01/14 12:35:05;;;;;;;30.00;26.92;;;1.80;99.90;;;;;;5057444;28;20049;-78
2021/01/14 12:37:34;;;;;;;30.60;27.50;;;1.70;99.90;;;;;;5054921;28;20048;-80
2021/01/14 12:40:01;;;;;;;31.73;28.50;;;1.70;99.90;;;;;;5073517;28;20056;-79
2021/01/14 12:42:28;;;;;;;30.90;27.60;;;1.80;99.90;;;;;;5074367;28;20059;-79
2021/01/14 12:44:54;;;;;;;32.17;27.35;;;1.70;99.90;;;;;;5074715;28;20048;-79
2021/01/14 12:47:21;;;;;;;33.08;26.52;;;1.70;99.90;;;;;;5074176;28;20040;-79
2021/01/14 12:49:47;;;;;;;30.20;27.42;;;1.70;99.90;;;;;;5072481;28;20510;-79
2021/01/14 12:52:14;;;;;;;28.40;25.75;;;1.70;99.90;;;;;;5055202;28;20067;-82
2021/01/14 12:54:41;;;;;;;28.02;25.10;;;1.70;99.90;;;;;;5055568;28;20049;-81